Time;durP1;ratioP1;P1;durP2;ratioP2;P2;SDS_P1;SDS_P2;PMS_P1;PMS_P2;Temp;Humidity;BMP_temperature;BMP_pressure;BME280_temperature;BME280_humidity;BME280_pressure;Samples;Min_cycle;Max_cycle;Signal;HPM_P1;HPM_P2
2022/04/04 00:00:18;;;;;;;11.85;8.30;;;-0.60;99.90;;;;;;4167538;28;20168;-79
2022/04/04 00:02:20;;;;;;;13.15;8.57;;;-0.60;99.90;;;;;;4182663;28;20057;-77
2022/04/04 00:04:22;;;;;;;15.43;9.48;;;-0.60;99.90;;;;;;4184442;28;20172;-78
2022/04/04 00:06:25;;;;;;;14.30;9.23;;;-0.60;99.90;;;;;;4196285;28;20953;-78
2022/04/04 00:08:27;;;;;;;10.57;7.82;;;-0.60;99.90;;;;;;4196327;28;20088;-78
2022/04/04 00:10:29;;;;;;;11.23;8.18;;;-0.60;99.90;;;;;;4180826;28;20065;-77
2022/04/04 00:12:31;;;;;;;12.77;8.50;;;-0.60;99.90;;;;;;4197512;28;20152;-78
2022/04/04 00:14:33;;;;;;;10.73;7.88;;;-0.60;99.90;;;;;;4190309;28;20096;-78
2022/04/04 00:16:35;;;;;;;12.90;8.38;;;-0.60;99.90;;;;;;4199343;28;20091;-78
2022/04/04 00:18:37;;;;;;;12.25;7.68;;;-0.60;99.90;;;;;;4200694;28;20059;-78
2022/04/04 00:20:42;;;;;;;10.07;7.93;;;-0.60;99.90;;;;;;4172163;28;20092;-79
2022/04/04 00:22:44;;;;;;;10.35;8.68;;;-0.60;99.90;;;;;;4189298;28;20176;-78
2022/04/04 00:24:45;;;;;;;12.13;8.00;;;-0.60;99.90;;;;;;4197094;28;20127;-78
2022/04/04 00:26:47;;;;;;;8.63;7.72;;;-0.60;99.90;;;;;;4201682;28;20119;-78
2022/04/04 00:28:49;;;;;;;10.68;8.35;;;-0.60;99.90;;;;;;4175289;28;20061;-77
2022/04/04 00:30:51;;;;;;;11.18;7.70;;;-0.70;99.90;;;;;;4197837;28;20855;-81
2022/04/04 00:32:53;;;;;;;10.98;8.10;;;-0.70;99.90;;;;;;4199941;28;20053;-78
2022/04/04 00:34:55;;;;;;;11.73;7.22;;;-0.70;99.90;;;;;;4184355;28;20168;-78
2022/04/04 00:36:57;;;;;;;10.30;8.70;;;-0.70;99.90;;;;;;4188289;28;20108;-79
2022/04/04 00:38:58;;;;;;;11.55;8.13;;;-0.80;99.90;;;;;;4200477;28;20041;-83
2022/04/04 00:41:07;;;;;;;10.15;8.32;;;-0.70;99.90;;;;;;4200806;28;20053;-80
2022/04/04 00:43:09;;;;;;;11.02;7.88;;;-0.70;99.90;;;;;;4188044;28;20788;-80
2022/04/04 00:45:12;;;;;;;11.77;8.00;;;-0.70;99.90;;;;;;4187401;28;20057;-80
2022/04/04 00:47:14;;;;;;;14.13;8.60;;;-0.70;99.90;;;;;;4216633;28;20071;-80
2022/04/04 00:49:15;;;;;;;9.55;8.15;;;-0.80;99.90;;;;;;4219405;28;20045;-81
2022/04/04 00:51:17;;;;;;;11.45;8.10;;;-0.80;99.90;;;;;;4212621;28;20057;-79
2022/04/04 00:53:19;;;;;;;9.00;7.75;;;-0.70;99.90;;;;;;4173273;28;20053;-80
2022/04/04 00:55:22;;;;;;;10.25;8.23;;;-0.80;99.90;;;;;;4194691;28;20049;-79
2022/04/04 00:57:24;;;;;;;11.85;8.60;;;-0.80;99.90;;;;;;4206641;28;20064;-80
2022/04/04 00:59:26;;;;;;;12.80;7.50;;;-0.80;99.90;;;;;;4201452;28;20171;-79
2022/04/04 01:01:28;;;;;;;10.82;8.98;;;-0.80;99.90;;;;;;4187691;28;20615;-78
2022/04/04 01:03:30;;;;;;;10.57;8.75;;;-0.80;99.90;;;;;;4187749;28;20129;-79
2022/04/04 01:05:32;;;;;;;9.52;8.10;;;-0.80;99.90;;;;;;4204992;28;20107;-79
2022/04/04 01:07:37;;;;;;;11.18;8.15;;;-0.90;99.90;;;;;;4203011;28;20179;-79
2022/04/04 01:09:39;;;;;;;10.30;7.80;;;-0.90;99.90;;;;;;4204091;28;20107;-78
2022/04/04 01:12:12;;;;;;;10.30;8.07;;;-0.90;99.90;;;;;;4204195;28;20167;-79
2022/04/04 01:14:14;;;;;;;11.35;8.35;;;-0.90;99.90;;;;;;4202016;28;20041;-81
2022/04/04 01:16:16;;;;;;;11.27;8.18;;;-1.00;99.90;;;;;;4200120;28;20057;-81
2022/04/04 01:18:18;;;;;;;10.85;8.43;;;-1.10;99.90;;;;;;4215970;28;20072;-80
2022/04/04 01:20:20;;;;;;;9.77;7.88;;;-1.10;99.90;;;;;;4215395;28;20056;-81
2022/04/04 01:22:24;;;;;;;10.55;7.75;;;-1.10;99.90;;;;;;4212891;28;20083;-80
2022/04/04 01:24:26;;;;;;;10.88;8.30;;;-1.10;99.90;;;;;;4217696;28;20080;-81
2022/04/04 01:26:28;;;;;;;12.98;8.02;;;-1.10;99.90;;;;;;4214213;28;20877;-79
2022/04/04 01:28:30;;;;;;;8.90;7.85;;;-1.10;99.90;;;;;;4214887;28;20065;-81
2022/04/04 01:30:33;;;;;;;10.65;8.65;;;-1.10;99.90;;;;;;4215260;28;20037;-80
2022/04/04 01:32:35;;;;;;;11.45;8.85;;;-1.10;99.90;;;;;;4215000;28;20053;-82
2022/04/04 01:34:37;;;;;;;11.55;8.68;;;-1.10;99.90;;;;;;4215777;28;20941;-81
2022/04/04 01:36:39;;;;;;;11.82;8.98;;;-1.10;99.90;;;;;;4225990;28;20065;-81
2022/04/04 01:38:41;;;;;;;10.93;7.90;;;-1.10;99.90;;;;;;4214819;28;20083;-81
2022/04/04 01:40:43;;;;;;;11.48;8.98;;;-1.10;99.90;;;;;;4214717;28;20045;-81
2022/04/04 01:42:51;;;;;;;10.27;9.05;;;-1.10;99.90;;;;;;4197097;28;20898;-81
2022/04/04 01:44:53;;;;;;;13.68;9.43;;;-1.10;99.90;;;;;;4229427;28;20036;-81
2022/04/04 01:46:55;;;;;;;12.18;8.82;;;-1.00;99.90;;;;;;4213628;28;20120;-81
2022/04/04 01:49:00;;;;;;;9.25;7.82;;;-1.00;99.90;;;;;;4215072;28;20061;-81
2022/04/04 01:51:02;;;;;;;11.43;8.40;;;-1.00;99.90;;;;;;4203404;28;20055;-79
2022/04/04 01:55:26;;;;;;;10.52;7.93;;;-1.00;99.90;;;;;;4213109;28;20854;-81
2022/04/04 01:57:28;;;;;;;10.90;8.02;;;-1.00;99.90;;;;;;4213008;28;20107;-80
2022/04/04 01:59:30;;;;;;;9.48;6.88;;;-1.10;99.90;;;;;;4205945;28;20099;-81
2022/04/04 02:01:34;;;;;;;10.15;7.82;;;-1.00;99.90;;;;;;4196809;28;20049;-81
2022/04/04 02:03:37;;;;;;;11.32;7.75;;;-1.00;99.90;;;;;;4198521;28;20033;-80
2022/04/04 02:05:39;;;;;;;11.10;7.43;;;-1.00;99.90;;;;;;4204396;28;20061;-80
2022/04/04 02:07:41;;;;;;;9.50;6.55;;;-1.10;99.90;;;;;;4200167;28;20081;-79
2022/04/04 02:09:43;;;;;;;10.57;7.53;;;-1.10;99.90;;;;;;4200830;23;20087;-76
2022/04/04 02:11:45;;;;;;;10.18;6.88;;;-1.10;99.90;;;;;;4156559;28;20054;-76
2022/04/04 02:13:48;;;;;;;7.93;6.07;;;-1.10;99.90;;;;;;4155723;28;20797;-75
2022/04/04 02:15:53;;;;;;;7.57;6.57;;;-1.10;99.90;;;;;;4156283;28;20096;-75
2022/04/04 02:17:56;;;;;;;7.43;6.70;;;-1.00;99.90;;;;;;4156915;28;20085;-75
2022/04/04 02:19:58;;;;;;;10.52;7.50;;;-1.10;99.90;;;;;;4151986;28;20054;-75
2022/04/04 02:22:00;;;;;;;9.10;6.80;;;-1.10;99.90;;;;;;4157430;28;20058;-75
2022/04/04 02:24:02;;;;;;;6.50;5.90;;;-1.00;99.90;;;;;;4157742;28;20069;-75
2022/04/04 02:26:05;;;;;;;7.57;6.50;;;-1.00;99.90;;;;;;4159705;28;20065;-75
2022/04/04 02:28:06;;;;;;;7.55;6.30;;;-1.00;99.90;;;;;;4163726;28;20232;-75
2022/04/04 02:30:09;;;;;;;10.77;6.88;;;-1.00;99.90;;;;;;4163068;28;20058;-75
2022/04/04 02:32:10;;;;;;;7.15;6.45;;;-1.00;99.90;;;;;;4155611;28;20058;-75
2022/04/04 02:34:12;;;;;;;6.38;5.50;;;-1.00;99.90;;;;;;4154197;28;20104;-75
2022/04/04 02:36:14;;;;;;;8.23;6.70;;;-1.00;99.90;;;;;;4152544;28;20058;-75
2022/04/04 02:38:18;;;;;;;8.15;6.30;;;-1.10;99.90;;;;;;4153039;28;20109;-74
2022/04/04 02:40:19;;;;;;;7.88;6.25;;;-1.10;99.90;;;;;;4158113;28;20872;-75
2022/04/04 02:42:21;;;;;;;7.93;6.00;;;-1.10;99.90;;;;;;4158523;28;20109;-75
2022/04/04 02:44:23;;;;;;;6.20;5.60;;;-1.20;99.90;;;;;;4154576;28;20176;-74
2022/04/04 02:46:24;;;;;;;5.35;4.88;;;-1.20;99.90;;;;;;4152566;28;20097;-74
2022/04/04 02:48:26;;;;;;;5.45;4.95;;;-1.20;99.90;;;;;;4156308;28;20116;-74
2022/04/04 02:50:29;;;;;;;9.80;5.38;;;-1.20;99.90;;;;;;4156816;28;20062;-75
2022/04/04 02:52:30;;;;;;;5.93;5.20;;;-1.20;99.90;;;;;;4160938;28;20164;-74
2022/04/04 02:54:32;;;;;;;4.95;4.43;;;-1.20;99.90;;;;;;4153077;28;20069;-74
2022/04/04 02:56:36;;;;;;;6.03;4.93;;;-1.20;99.90;;;;;;4153597;28;20094;-74
2022/04/04 02:58:38;;;;;;;10.25;5.60;;;-1.20;99.90;;;;;;4154170;28;20121;-75
2022/04/04 03:00:41;;;;;;;6.97;5.38;;;-1.20;99.90;;;;;;4157773;28;20105;-74
2022/04/04 03:02:42;;;;;;;9.25;5.53;;;-1.10;99.90;;;;;;4161606;28;20157;-74
2022/04/04 03:04:44;;;;;;;6.05;5.38;;;-1.20;99.90;;;;;;4155926;28;20093;-74
2022/04/04 03:06:46;;;;;;;6.50;5.43;;;-1.20;99.90;;;;;;4157731;28;20057;-74
2022/04/04 03:08:48;;;;;;;5.38;4.65;;;-1.20;99.90;;;;;;4154895;28;20065;-74
2022/04/04 03:10:50;;;;;;;6.28;5.47;;;-1.10;99.90;;;;;;4158498;28;20065;-74
2022/04/04 03:12:52;;;;;;;7.57;4.35;;;-1.10;99.90;;;;;;4149858;28;20941;-74
2022/04/04 03:14:53;;;;;;;6.28;4.45;;;-1.10;99.90;;;;;;4154856;28;20064;-74
2022/04/04 03:16:55;;;;;;;4.90;4.35;;;-1.10;99.90;;;;;;4157849;28;20065;-74
2022/04/04 03:18:58;;;;;;;7.43;5.28;;;-1.10;99.90;;;;;;4154251;28;20054;-74
2022/04/04 03:21:01;;;;;;;5.30;4.80;;;-1.10;99.90;;;;;;4150930;28;20057;-75
2022/04/04 03:23:02;;;;;;;6.80;4.78;;;-1.10;99.90;;;;;;4157601;28;20097;-75
2022/04/04 03:25:05;;;;;;;5.55;5.05;;;-1.10;99.90;;;;;;4158873;28;20062;-75
2022/04/04 03:27:07;;;;;;;6.05;5.05;;;-1.10;99.90;;;;;;4159448;28;20063;-75
2022/04/04 03:29:09;;;;;;;6.40;5.78;;;-1.10;99.90;;;;;;4158254;28;20097;-75
2022/04/04 03:31:10;;;;;;;5.82;5.18;;;-1.10;99.90;;;;;;4151298;28;20841;-75
2022/04/04 03:33:12;;;;;;;11.15;6.78;;;-1.10;99.90;;;;;;4159504;28;20093;-75
2022/04/04 03:35:14;;;;;;;10.52;6.18;;;-1.10;99.90;;;;;;4155514;28;20784;-75
2022/04/04 03:37:16;;;;;;;6.22;5.63;;;-1.20;99.90;;;;;;4158327;28;20061;-73
2022/04/04 03:39:18;;;;;;;10.57;6.97;;;-1.40;99.90;;;;;;4152891;28;20094;-73
2022/04/04 03:41:20;;;;;;;8.80;6.65;;;-1.50;99.90;;;;;;4156524;28;20097;-74
2022/04/04 03:43:23;;;;;;;8.95;6.43;;;-1.60;99.90;;;;;;4156883;28;20177;-74
2022/04/04 03:45:25;;;;;;;12.35;7.05;;;-1.60;99.90;;;;;;4155123;28;20065;-74
2022/04/04 03:47:26;;;;;;;10.52;7.60;;;-1.60;99.90;;;;;;4151745;28;20168;-74
2022/04/04 03:49:29;;;;;;;9.07;6.40;;;-1.70;99.90;;;;;;4155872;28;20232;-75
2022/04/04 03:51:31;;;;;;;10.63;7.25;;;-1.80;99.90;;;;;;4157672;28;20837;-73
2022/04/04 03:53:33;;;;;;;9.45;7.22;;;-1.80;99.90;;;;;;4160634;28;20058;-73
2022/04/04 03:55:38;;;;;;;7.28;5.97;;;-1.70;99.90;;;;;;4161279;28;21544;-74
2022/04/04 03:57:41;;;;;;;9.90;7.20;;;-1.70;99.90;;;;;;4165305;28;20292;-74
2022/04/04 03:59:43;;;;;;;10.05;8.35;;;-1.80;99.90;;;;;;4155634;28;20054;-75
2022/04/04 04:01:45;;;;;;;8.70;7.03;;;-1.70;99.90;;;;;;4156879;28;20097;-75
2022/04/04 04:03:46;;;;;;;7.05;6.45;;;-1.70;99.90;;;;;;4160784;28;20765;-76
2022/04/04 04:05:48;;;;;;;8.30;6.45;;;-1.60;99.90;;;;;;4153757;28;20058;-75
2022/04/04 04:07:51;;;;;;;11.30;7.72;;;-1.60;99.90;;;;;;4158019;28;20784;-74
2022/04/04 04:09:53;;;;;;;8.32;6.82;;;-1.60;99.90;;;;;;4158903;28;20129;-74
2022/04/04 04:11:56;;;;;;;12.00;7.60;;;-1.60;99.90;;;;;;4160054;28;20051;-74
2022/04/04 04:14:00;;;;;;;7.80;7.00;;;-1.60;99.90;;;;;;4163516;28;20085;-75
2022/04/04 04:16:02;;;;;;;8.95;7.65;;;-1.60;99.90;;;;;;4154483;28;21192;-74
2022/04/04 04:18:04;;;;;;;9.00;7.70;;;-1.50;99.90;;;;;;4158607;28;20101;-74
2022/04/04 04:20:29;;;;;;;9.85;7.47;;;-1.50;99.90;;;;;;4160816;28;20168;-74
2022/04/04 04:22:31;;;;;;;9.48;7.50;;;-1.50;99.90;;;;;;4158356;28;20062;-74
2022/04/04 04:24:33;;;;;;;7.40;6.63;;;-1.50;99.90;;;;;;4155779;28;20054;-74
2022/04/04 04:26:34;;;;;;;9.73;7.70;;;-1.50;99.90;;;;;;4159900;28;20058;-74
2022/04/04 04:28:36;;;;;;;9.40;7.38;;;-1.50;99.90;;;;;;4157317;28;20058;-75
2022/04/04 04:30:38;;;;;;;8.27;6.90;;;-1.60;99.90;;;;;;4157839;28;20100;-74
2022/04/04 04:32:46;;;;;;;8.85;6.70;;;-1.60;99.90;;;;;;4153594;28;20046;-75
2022/04/04 04:34:50;;;;;;;9.85;7.72;;;-1.60;99.90;;;;;;4159172;28;20102;-75
2022/04/04 04:36:51;;;;;;;10.73;7.55;;;-1.70;99.90;;;;;;4160918;28;20172;-75
2022/04/04 04:38:53;;;;;;;9.18;7.55;;;-1.70;99.90;;;;;;4160264;28;20086;-74
2022/04/04 04:40:55;;;;;;;10.20;7.80;;;-1.80;99.90;;;;;;4156515;28;20090;-75
2022/04/04 04:42:58;;;;;;;12.55;8.48;;;-1.80;99.90;;;;;;4153872;28;20046;-75
2022/04/04 04:45:01;;;;;;;13.70;8.38;;;-1.80;99.90;;;;;;4162929;28;20065;-74
2022/04/04 04:47:04;;;;;;;10.38;7.85;;;-1.70;99.90;;;;;;4159400;28;20861;-74
2022/04/04 04:49:06;;;;;;;9.45;7.85;;;-1.80;99.90;;;;;;4157922;28;20084;-73
2022/04/04 04:51:08;;;;;;;9.60;7.97;;;-1.80;99.90;;;;;;4162181;28;20804;-75
2022/04/04 04:53:10;;;;;;;11.25;6.95;;;-1.90;99.90;;;;;;4159266;28;20064;-76
2022/04/04 04:55:13;;;;;;;8.15;7.35;;;-1.80;99.90;;;;;;4163850;28;20081;-74
2022/04/04 04:57:15;;;;;;;10.52;8.38;;;-1.80;99.90;;;;;;4164797;28;20072;-75
2022/04/04 04:59:17;;;;;;;9.25;6.88;;;-1.80;99.90;;;;;;4159752;28;20115;-75
2022/04/04 05:01:20;;;;;;;10.38;7.88;;;-1.80;99.90;;;;;;4160492;28;20065;-75
2022/04/04 05:03:25;;;;;;;11.85;8.20;;;-1.70;99.90;;;;;;4167530;28;20140;-75
2022/04/04 05:05:26;;;;;;;13.30;7.90;;;-1.60;99.90;;;;;;4165003;28;20058;-75
2022/04/04 05:07:28;;;;;;;11.07;8.70;;;-1.60;99.90;;;;;;4163826;28;20120;-75
2022/04/04 05:09:30;;;;;;;8.88;7.50;;;-1.60;99.90;;;;;;4159889;28;20054;-75
2022/04/04 05:11:32;;;;;;;8.95;8.05;;;-1.60;99.90;;;;;;4164013;28;20097;-75
2022/04/04 05:13:34;;;;;;;11.15;7.50;;;-1.60;99.90;;;;;;4165263;28;20888;-75
2022/04/04 05:15:35;;;;;;;9.38;7.78;;;-1.60;99.90;;;;;;4163033;28;20057;-75
2022/04/04 05:17:38;;;;;;;8.65;7.68;;;-1.60;99.90;;;;;;4162309;28;20054;-75
2022/04/04 05:19:40;;;;;;;9.05;7.50;;;-1.60;99.90;;;;;;4163050;28;20085;-75
2022/04/04 05:21:42;;;;;;;8.65;7.35;;;-1.60;99.90;;;;;;4163033;28;20160;-75
2022/04/04 05:23:47;;;;;;;12.77;8.25;;;-1.60;99.90;;;;;;4164877;28;20160;-75
2022/04/04 05:25:49;;;;;;;10.52;6.90;;;-1.50;99.90;;;;;;4162729;28;20189;-75
2022/04/04 05:27:52;;;;;;;10.38;7.70;;;-1.60;99.90;;;;;;4164041;28;20196;-75
2022/04/04 05:29:54;;;;;;;9.98;7.70;;;-1.60;99.90;;;;;;4163852;28;20572;-75
2022/04/04 05:31:56;;;;;;;8.45;7.18;;;-1.60;99.90;;;;;;4164578;28;20716;-75
2022/04/04 05:33:59;;;;;;;9.45;7.45;;;-1.60;99.90;;;;;;4173983;28;20164;-75
2022/04/04 05:36:02;;;;;;;8.20;7.32;;;-1.60;99.90;;;;;;4163039;28;20144;-75
2022/04/04 05:38:03;;;;;;;10.25;8.10;;;-1.60;99.90;;;;;;4162154;28;20097;-75
2022/04/04 05:40:06;;;;;;;9.38;7.38;;;-1.50;99.90;;;;;;4162812;28;20156;-75
2022/04/04 05:42:08;;;;;;;9.55;7.45;;;-1.40;99.90;;;;;;4161064;28;21220;-75
2022/04/04 05:44:10;;;;;;;9.75;7.50;;;-1.30;99.90;;;;;;4167057;28;20136;-77
2022/04/04 05:46:13;;;;;;;8.82;6.78;;;-1.20;99.90;;;;;;4162558;28;20157;-76
2022/04/04 05:48:15;;;;;;;6.93;6.15;;;-1.10;99.90;;;;;;4165448;28;20050;-77
2022/04/04 05:50:16;;;;;;;10.00;6.22;;;-1.00;99.90;;;;;;4164131;28;20770;-76
2022/04/04 05:52:20;;;;;;;11.52;7.38;;;-1.00;99.90;;;;;;4159586;28;20912;-77
2022/04/04 05:54:22;;;;;;;14.30;7.07;;;-1.00;99.90;;;;;;4163991;28;20058;-75
2022/04/04 05:56:24;;;;;;;8.15;6.18;;;-1.00;99.90;;;;;;4159486;28;20690;-76
2022/04/04 05:58:26;;;;;;;7.60;5.95;;;-1.10;99.90;;;;;;4163551;28;20181;-75
2022/04/04 06:00:28;;;;;;;9.45;7.45;;;-1.10;99.90;;;;;;4160867;28;20848;-75
2022/04/04 06:02:29;;;;;;;9.93;6.55;;;-1.00;99.90;;;;;;4159717;28;20795;-75
2022/04/04 06:04:31;;;;;;;7.38;6.18;;;-1.00;99.90;;;;;;4158106;28;20062;-75
2022/04/04 06:06:34;;;;;;;9.48;6.60;;;-1.10;99.90;;;;;;4162755;28;20111;-75
2022/04/04 06:08:36;;;;;;;7.53;5.90;;;-1.10;99.90;;;;;;4161394;28;20093;-75
2022/04/04 06:10:37;;;;;;;7.82;6.28;;;-1.10;99.90;;;;;;4161774;28;20093;-74
2022/04/04 06:12:40;;;;;;;8.73;6.85;;;-1.10;99.90;;;;;;4156073;28;20076;-74
2022/04/04 06:14:42;;;;;;;8.95;6.25;;;-1.00;99.90;;;;;;4162552;28;20102;-75
2022/04/04 06:16:44;;;;;;;11.05;6.95;;;-1.00;99.90;;;;;;4163168;28;20045;-74
2022/04/04 06:18:50;;;;;;;8.10;6.07;;;-0.90;99.90;;;;;;4163851;28;20168;-75
2022/04/04 06:20:52;;;;;;;12.13;6.80;;;-0.80;99.90;;;;;;4160321;28;20104;-74
2022/04/04 06:22:53;;;;;;;8.07;7.07;;;-0.80;99.90;;;;;;4160306;28;20212;-74
2022/04/04 06:24:55;;;;;;;8.38;6.32;;;-0.80;99.90;;;;;;4163267;28;20097;-74
2022/04/04 06:27:00;;;;;;;7.55;6.47;;;-0.80;99.90;;;;;;4162881;28;20180;-74
2022/04/04 06:29:02;;;;;;;7.03;6.22;;;-0.80;99.90;;;;;;4159559;28;20128;-75
2022/04/04 06:31:04;;;;;;;10.48;6.82;;;-0.70;99.90;;;;;;4158925;28;20651;-75
2022/04/04 06:33:07;;;;;;;7.03;6.43;;;-0.60;99.90;;;;;;4163434;28;20062;-75
2022/04/04 06:35:09;;;;;;;10.40;6.57;;;-0.60;99.90;;;;;;4161571;28;20062;-74
2022/04/04 06:37:11;;;;;;;6.57;5.90;;;-0.50;99.90;;;;;;4163632;28;20715;-74
2022/04/04 06:39:14;;;;;;;8.93;7.13;;;-0.50;99.90;;;;;;4159900;28;20245;-74
2022/04/04 06:41:16;;;;;;;7.97;6.85;;;-0.50;99.90;;;;;;4175904;28;20107;-75
2022/04/04 06:43:18;;;;;;;11.45;7.95;;;-0.40;99.90;;;;;;4162407;28;20152;-74
2022/04/04 06:45:21;;;;;;;9.95;7.63;;;-0.30;99.90;;;;;;4162322;28;20061;-74
2022/04/04 06:47:23;;;;;;;10.85;7.10;;;-0.20;99.90;;;;;;4156440;28;20101;-75
2022/04/04 06:49:25;;;;;;;14.32;8.32;;;-0.20;99.90;;;;;;4160887;28;20097;-75
2022/04/04 06:51:27;;;;;;;9.13;6.88;;;-0.30;99.90;;;;;;4157830;28;20058;-73
2022/04/04 06:53:29;;;;;;;9.65;7.78;;;-0.20;99.90;;;;;;4157933;28;20101;-73
2022/04/04 06:55:31;;;;;;;8.15;7.35;;;-0.10;99.90;;;;;;4152388;28;20046;-77
2022/04/04 06:57:33;;;;;;;7.47;6.75;;;-0.10;99.90;;;;;;4153896;28;20058;-76
2022/04/04 06:59:35;;;;;;;11.35;6.35;;;0.00;99.90;;;;;;4154977;28;20089;-73
2022/04/04 07:01:37;;;;;;;9.07;6.28;;;0.10;99.90;;;;;;4157485;28;20053;-73
2022/04/04 07:03:39;;;;;;;12.07;7.60;;;0.10;99.90;;;;;;4153238;28;20157;-73
2022/04/04 07:05:41;;;;;;;6.80;6.20;;;0.20;99.90;;;;;;4151099;28;20101;-73
2022/04/04 07:07:43;;;;;;;8.55;6.57;;;0.20;99.90;;;;;;4154413;28;20062;-73
2022/04/04 07:09:45;;;;;;;11.95;6.60;;;0.30;99.90;;;;;;4158764;28;20930;-73
2022/04/04 07:11:50;;;;;;;8.13;6.88;;;0.30;99.90;;;;;;4155735;28;20133;-73
2022/04/04 07:13:52;;;;;;;7.22;6.18;;;0.40;99.70;;;;;;4155351;28;20103;-73
2022/04/04 07:15:54;;;;;;;8.27;6.20;;;0.50;99.90;;;;;;4153677;28;20058;-73
2022/04/04 07:17:56;;;;;;;8.73;6.13;;;0.60;99.90;;;;;;4157077;28;20093;-74
2022/04/04 07:19:57;;;;;;;10.38;5.78;;;0.60;99.40;;;;;;4163214;28;21265;-72
2022/04/04 07:22:00;;;;;;;9.93;6.82;;;0.70;98.00;;;;;;4163477;28;20701;-72
2022/04/04 07:24:02;;;;;;;6.25;5.65;;;0.80;98.10;;;;;;4150821;28;20058;-74
2022/04/04 07:26:04;;;;;;;8.65;5.85;;;0.80;97.50;;;;;;4154594;28;20061;-75
2022/04/04 07:28:08;;;;;;;7.60;5.88;;;0.80;97.00;;;;;;4156553;28;20691;-75
2022/04/04 07:30:12;;;;;;;7.40;6.07;;;0.90;97.70;;;;;;4159771;28;20137;-72
2022/04/04 07:32:14;;;;;;;7.82;5.95;;;1.00;96.80;;;;;;4151766;28;20093;-72
2022/04/04 07:34:16;;;;;;;10.95;5.55;;;1.10;96.60;;;;;;4158183;28;20062;-72
2022/04/04 07:36:18;;;;;;;6.07;5.38;;;1.20;97.00;;;;;;4158579;28;20932;-72
2022/04/04 07:38:20;;;;;;;6.40;5.55;;;1.20;96.10;;;;;;4157728;28;20101;-72
2022/04/04 07:40:22;;;;;;;8.30;5.63;;;1.30;95.50;;;;;;4160461;28;20104;-72
2022/04/04 07:42:24;;;;;;;5.72;5.22;;;1.30;96.30;;;;;;4149059;28;20096;-73
2022/04/04 07:44:26;;;;;;;6.13;5.53;;;1.40;96.40;;;;;;4153780;28;20186;-72
2022/04/04 07:46:28;;;;;;;7.90;6.10;;;1.40;97.20;;;;;;4157542;28;20062;-72
2022/04/04 07:48:32;;;;;;;9.98;6.22;;;1.40;97.70;;;;;;4153043;28;20132;-72
2022/04/04 07:50:35;;;;;;;7.75;6.78;;;1.40;96.50;;;;;;4150753;28;20097;-72
2022/04/04 07:52:37;;;;;;;7.88;5.70;;;1.40;95.50;;;;;;4154310;28;21544;-72
2022/04/04 07:54:39;;;;;;;6.53;5.88;;;1.30;94.00;;;;;;4155503;28;20093;-72
2022/04/04 07:56:41;;;;;;;6.35;5.75;;;1.30;94.50;;;;;;4155931;28;20097;-73
2022/04/04 07:58:43;;;;;;;7.60;5.82;;;1.30;93.60;;;;;;4156145;28;20117;-75
2022/04/04 08:00:45;;;;;;;7.32;6.45;;;1.40;94.40;;;;;;4150672;28;20058;-73
2022/04/04 08:02:47;;;;;;;10.50;6.03;;;1.50;94.40;;;;;;4156292;28;20089;-73
2022/04/04 08:04:50;;;;;;;8.63;6.10;;;1.60;94.60;;;;;;4160563;28;20140;-73
2022/04/04 08:06:51;;;;;;;8.02;5.75;;;1.70;95.40;;;;;;4157787;28;20100;-73
2022/04/04 08:08:53;;;;;;;7.60;5.95;;;1.80;94.60;;;;;;4152986;28;20094;-73
2022/04/04 08:10:57;;;;;;;6.80;6.15;;;1.90;94.00;;;;;;4158394;28;20096;-72
2022/04/04 08:12:59;;;;;;;11.95;7.60;;;1.90;93.60;;;;;;4155958;28;20937;-72
2022/04/04 08:15:01;;;;;;;7.18;6.32;;;1.90;94.10;;;;;;4160995;28;20051;-72
2022/04/04 08:17:04;;;;;;;6.47;5.80;;;2.00;94.40;;;;;;4162813;28;20054;-73
2022/04/04 08:19:06;;;;;;;6.75;5.25;;;2.00;94.00;;;;;;4152235;28;20648;-72
2022/04/04 08:21:07;;;;;;;7.85;5.93;;;2.10;94.00;;;;;;4154643;28;20097;-72
2022/04/04 08:23:09;;;;;;;6.97;6.28;;;2.10;93.80;;;;;;4155545;28;20050;-72
2022/04/04 08:25:13;;;;;;;6.40;5.78;;;2.20;93.10;;;;;;4160398;28;20093;-72
2022/04/04 08:27:15;;;;;;;10.90;5.97;;;2.30;93.90;;;;;;4152794;28;20093;-75
2022/04/04 08:29:16;;;;;;;9.90;6.13;;;2.40;94.90;;;;;;4155652;28;20065;-75
2022/04/04 08:31:18;;;;;;;10.02;6.85;;;2.50;95.40;;;;;;4155464;28;20062;-73
2022/04/04 08:33:20;;;;;;;9.05;6.13;;;2.50;94.50;;;;;;4153760;28;20053;-72
2022/04/04 08:35:22;;;;;;;8.10;5.43;;;2.50;93.50;;;;;;4150548;28;20094;-72
2022/04/04 08:37:23;;;;;;;7.40;6.25;;;2.50;93.10;;;;;;4153464;28;20077;-73
2022/04/04 08:39:25;;;;;;;7.10;6.40;;;2.60;93.60;;;;;;4164319;28;20062;-73
2022/04/04 08:41:31;;;;;;;10.20;6.47;;;2.60;93.70;;;;;;4159660;28;20152;-73
2022/04/04 08:43:36;;;;;;;12.90;6.68;;;2.70;93.50;;;;;;4176724;28;20101;-73
2022/04/04 08:45:41;;;;;;;8.68;6.25;;;2.70;92.50;;;;;;4151553;28;20887;-73
2022/04/04 08:47:43;;;;;;;6.25;5.72;;;2.70;91.90;;;;;;4157515;28;20220;-74
2022/04/04 08:49:45;;;;;;;8.98;6.80;;;2.70;91.70;;;;;;4159450;28;20093;-73
2022/04/04 08:51:50;;;;;;;6.90;6.20;;;2.80;91.90;;;;;;4162476;28;20088;-73
2022/04/04 08:53:53;;;;;;;6.97;6.15;;;2.80;92.60;;;;;;4164248;28;20058;-73
2022/04/04 08:55:57;;;;;;;7.55;6.85;;;2.80;90.90;;;;;;4154009;28;20086;-73
2022/04/04 08:57:58;;;;;;;7.28;5.57;;;2.80;89.60;;;;;;4160374;28;21296;-72
2022/04/04 09:00:00;;;;;;;6.97;6.28;;;2.80;85.50;;;;;;4156888;28;20061;-73
2022/04/04 09:02:03;;;;;;;10.95;7.03;;;2.70;88.20;;;;;;4158632;28;20058;-73
2022/04/04 09:04:04;;;;;;;8.52;6.43;;;2.80;89.20;;;;;;4156332;28;20101;-72
2022/04/04 09:06:06;;;;;;;6.85;6.13;;;2.80;85.70;;;;;;4157654;28;20054;-72
2022/04/04 09:08:09;;;;;;;7.78;6.50;;;2.80;86.30;;;;;;4161996;28;20097;-72
2022/04/04 09:10:14;;;;;;;6.47;5.80;;;2.90;89.30;;;;;;4160350;28;20149;-72
2022/04/04 09:12:23;;;;;;;6.50;5.90;;;2.90;86.30;;;;;;4154994;28;20192;-72
2022/04/04 09:14:25;;;;;;;6.45;5.70;;;2.90;88.00;;;;;;4159826;28;20960;-72
2022/04/04 09:16:27;;;;;;;6.22;5.63;;;2.90;82.70;;;;;;4160051;28;20180;-72
2022/04/04 09:18:40;;;;;;;7.03;6.40;;;2.80;83.30;;;;;;4157291;28;20058;-72
2022/04/04 09:20:49;;;;;;;7.47;6.82;;;2.70;83.40;;;;;;4160985;28;20062;-72
2022/04/04 09:22:52;;;;;;;7.28;6.57;;;2.70;83.40;;;;;;4154408;28;20062;-72
2022/04/04 09:24:59;;;;;;;6.25;5.65;;;2.80;88.60;;;;;;4159230;28;20793;-72
2022/04/04 09:27:10;;;;;;;6.53;5.93;;;2.90;84.70;;;;;;4171289;28;20958;-72
2022/04/04 09:29:12;;;;;;;5.82;5.32;;;3.00;85.80;;;;;;4160872;28;20916;-72
2022/04/04 09:31:14;;;;;;;8.75;6.00;;;3.10;83.50;;;;;;4156435;28;20169;-72
2022/04/04 09:33:38;;;;;;;6.50;5.80;;;3.10;84.00;;;;;;4155421;28;20057;-72
2022/04/04 09:35:47;;;;;;;7.75;6.22;;;3.10;82.70;;;;;;4159805;28;20066;-73
2022/04/04 09:37:53;;;;;;;7.10;6.32;;;3.20;83.10;;;;;;4154427;28;20065;-73
2022/04/04 09:40:03;;;;;;;7.20;6.50;;;3.20;81.90;;;;;;4156658;28;20058;-73
2022/04/04 09:42:16;;;;;;;9.02;6.00;;;3.30;85.00;;;;;;4160121;28;20076;-73
2022/04/04 09:44:25;;;;;;;9.80;6.25;;;3.30;84.50;;;;;;4161151;28;20177;-73
2022/04/04 09:46:35;;;;;;;6.78;6.18;;;3.30;80.90;;;;;;4156133;28;20046;-72
2022/04/04 09:48:37;;;;;;;7.03;6.32;;;3.40;84.30;;;;;;4152560;28;20069;-72
2022/04/04 09:50:45;;;;;;;6.78;5.97;;;3.40;82.70;;;;;;4153882;28;20062;-73
2022/04/04 09:52:51;;;;;;;6.78;6.20;;;3.40;83.50;;;;;;4157637;28;20885;-73
2022/04/04 09:54:53;;;;;;;6.18;5.63;;;3.50;87.70;;;;;;4158768;28;20074;-72
2022/04/04 09:57:15;;;;;;;5.90;5.40;;;3.50;85.60;;;;;;4152357;28;20176;-72
2022/04/04 09:59:17;;;;;;;6.57;6.05;;;3.60;85.60;;;;;;4154026;28;20920;-71
2022/04/04 10:01:19;;;;;;;6.60;6.00;;;3.80;83.20;;;;;;4159744;28;20789;-72
2022/04/04 10:03:23;;;;;;;7.15;6.45;;;3.80;84.50;;;;;;4155528;28;20132;-71
2022/04/04 10:05:26;;;;;;;8.38;6.72;;;3.90;85.10;;;;;;4159594;28;20089;-72
2022/04/04 10:07:28;;;;;;;7.13;6.43;;;3.90;87.00;;;;;;4155147;28;20089;-73
2022/04/04 10:09:30;;;;;;;7.10;6.30;;;4.00;86.70;;;;;;4154894;28;20061;-74
2022/04/04 10:11:35;;;;;;;11.38;6.38;;;3.90;85.60;;;;;;4158527;28;20065;-71
2022/04/04 10:13:37;;;;;;;7.70;6.82;;;3.80;84.70;;;;;;4160460;28;20093;-71
2022/04/04 10:15:39;;;;;;;8.15;7.35;;;3.90;84.40;;;;;;4154207;28;21214;-72
2022/04/04 10:17:42;;;;;;;7.97;6.15;;;4.00;84.80;;;;;;4158015;28;20093;-72
2022/04/04 10:19:44;;;;;;;8.57;7.00;;;3.90;83.90;;;;;;4165225;28;20061;-73
2022/04/04 10:21:46;;;;;;;11.27;6.70;;;3.90;86.00;;;;;;4162112;28;20065;-73
2022/04/04 10:23:52;;;;;;;7.65;6.90;;;3.60;84.20;;;;;;4160051;28;20057;-74
2022/04/04 10:25:58;;;;;;;7.30;6.60;;;3.50;86.30;;;;;;4154265;28;20898;-73
2022/04/04 10:28:00;;;;;;;8.30;7.45;;;3.60;87.50;;;;;;4160065;28;20846;-74
2022/04/04 10:30:07;;;;;;;7.40;6.10;;;3.60;88.00;;;;;;4154252;28;20181;-75
2022/04/04 10:32:25;;;;;;;12.52;8.57;;;3.60;88.30;;;;;;4158110;28;20062;-72
2022/04/04 10:34:27;;;;;;;6.75;6.25;;;3.70;87.60;;;;;;4175814;28;20792;-72
2022/04/04 10:36:29;;;;;;;7.20;6.47;;;4.00;87.80;;;;;;4162212;28;20881;-71
2022/04/04 10:38:36;;;;;;;6.35;5.75;;;4.10;85.80;;;;;;4163615;28;20184;-72
2022/04/04 10:40:38;;;;;;;6.50;5.80;;;4.40;81.80;;;;;;4161341;28;20092;-72
2022/04/04 10:42:41;;;;;;;5.55;5.05;;;4.50;82.40;;;;;;4162669;28;20834;-72